createdAt,value
2022-10-03T00:00:28.537Z,2.83
2022-10-03T00:01:48.165Z,3.08
2022-10-03T00:03:09.561Z,2.85
2022-10-03T00:04:33.011Z,2.90
2022-10-03T00:06:01.312Z,3.58
2022-10-03T00:07:33.107Z,3.33
2022-10-03T00:08:54.326Z,3.13
2022-10-03T00:10:27.480Z,3.42
2022-10-03T00:12:03.586Z,3.55
2022-10-03T00:13:20.895Z,3.30
2022-10-03T00:14:44.978Z,3.08
2022-10-03T00:15:54.317Z,2.95
2022-10-03T00:17:16.030Z,3.53
2022-10-03T00:18:48.681Z,2.85
2022-10-03T00:20:13.290Z,3.08
2022-10-03T00:21:21.701Z,3.10
2022-10-03T00:22:30.260Z,3.28
2022-10-03T00:23:47.939Z,3.20
2022-10-03T00:25:27.481Z,3.40
2022-10-03T00:26:49.935Z,3.10
2022-10-03T00:28:14.250Z,2.42
2022-10-03T00:29:35.501Z,2.80
2022-10-03T00:30:46.559Z,2.90
2022-10-03T00:32:02.756Z,3.20
2022-10-03T00:33:23.412Z,2.47
2022-10-03T00:34:42.466Z,2.70
2022-10-03T00:36:02.682Z,3.03
2022-10-03T00:37:15.310Z,2.88
2022-10-03T00:38:35.616Z,2.60
2022-10-03T00:40:28.592Z,2.88
2022-10-03T00:41:49.342Z,2.95
2022-10-03T00:43:21.838Z,3.05
2022-10-03T00:45:12.554Z,2.50
2022-10-03T00:46:27.281Z,2.22
2022-10-03T00:47:30.057Z,2.47
2022-10-03T00:48:44.589Z,2.45
2022-10-03T00:49:59.690Z,2.72
2022-10-03T00:51:20.180Z,2.60
2022-10-03T00:52:26.053Z,2.25
2022-10-03T00:53:33.162Z,2.25
2022-10-03T00:54:44.815Z,2.47
2022-10-03T00:55:50.711Z,3.30
2022-10-03T00:57:14.406Z,2.67
2022-10-03T00:58:31.984Z,2.63
2022-10-03T01:00:13.601Z,2.58
2022-10-03T01:01:46.617Z,2.33
2022-10-03T01:02:52.343Z,2.25
2022-10-03T01:04:30.301Z,2.40
2022-10-03T01:06:17.926Z,2.60
2022-10-03T01:07:27.276Z,2.28
2022-10-03T01:08:48.598Z,2.50
2022-10-03T01:10:12.458Z,2.80
2022-10-03T01:11:35.990Z,2.33
2022-10-03T01:12:47.737Z,2.75
2022-10-03T01:14:02.329Z,2.60
2022-10-03T01:15:16.751Z,2.70
2022-10-03T01:16:45.292Z,1.98
2022-10-03T01:18:11.139Z,2.58
2022-10-03T01:19:58.835Z,2.70
2022-10-03T01:21:30.138Z,2.83
2022-10-03T01:23:02.843Z,2.38
2022-10-03T01:24:32.857Z,2.20
2022-10-03T01:25:37.928Z,1.95
2022-10-03T01:27:02.352Z,2.40
2022-10-03T01:28:50.073Z,1.90
2022-10-03T01:30:16.508Z,1.92
2022-10-03T01:31:25.588Z,2.20
2022-10-03T01:32:34.163Z,2.40
2022-10-03T01:33:46.594Z,1.75
2022-10-03T01:34:59.042Z,1.95
2022-10-03T01:36:40.543Z,2.03
2022-10-03T01:38:14.341Z,2.08
2022-10-03T01:39:29.234Z,1.73
2022-10-03T01:40:40.323Z,2.13
2022-10-03T01:41:59.141Z,2.33
2022-10-03T01:43:25.450Z,1.88
2022-10-03T01:45:03.220Z,2.30
2022-10-03T01:46:28.179Z,1.85
2022-10-03T01:47:51.770Z,1.83
2022-10-03T01:49:24.144Z,1.73
2022-10-03T01:50:38.741Z,1.65
2022-10-03T01:52:00.243Z,1.95
2022-10-03T01:53:13.662Z,1.63
2022-10-03T01:54:40.886Z,2.22
2022-10-03T01:56:07.496Z,1.60
2022-10-03T01:57:37.273Z,1.67
2022-10-03T01:58:48.881Z,1.63
2022-10-03T02:00:17.738Z,1.90
2022-10-03T02:01:34.661Z,2.00
2022-10-03T02:02:39.943Z,1.30
2022-10-03T02:03:50.271Z,1.75
2022-10-03T02:05:14.396Z,1.67
2022-10-03T02:06:30.109Z,1.77
2022-10-03T02:08:00.840Z,1.83
2022-10-03T02:09:08.121Z,1.77
2022-10-03T02:10:28.485Z,1.70
2022-10-03T02:11:34.106Z,1.45
2022-10-03T02:12:41.801Z,1.77
2022-10-03T02:14:18.372Z,1.40
2022-10-03T02:15:29.781Z,1.45
2022-10-03T02:17:03.545Z,1.55
2022-10-03T02:18:16.787Z,1.50
2022-10-03T02:19:30.118Z,1.40
2022-10-03T02:20:48.899Z,1.25
2022-10-03T02:21:54.549Z,1.20
2022-10-03T02:22:58.319Z,1.50
2022-10-03T02:24:23.802Z,1.60
2022-10-03T02:25:52.182Z,1.77
2022-10-03T02:27:21.382Z,1.73
2022-10-03T02:28:30.491Z,2.17
2022-10-03T02:30:00.846Z,1.77
2022-10-03T02:31:28.360Z,1.50
2022-10-03T02:32:45.226Z,1.30
2022-10-03T02:34:12.091Z,1.38
2022-10-03T02:35:38.143Z,1.77
2022-10-03T02:37:06.846Z,2.38
2022-10-03T02:38:23.794Z,2.20
2022-10-03T02:39:45.380Z,1.65
2022-10-03T02:41:25.837Z,1.45
2022-10-03T02:43:06.068Z,2.33
2022-10-03T02:44:27.307Z,1.50
2022-10-03T02:45:48.740Z,1.67
2022-10-03T02:47:12.385Z,1.80
2022-10-03T02:48:32.809Z,1.95
2022-10-03T02:49:58.556Z,1.55
2022-10-03T02:51:05.560Z,1.80
2022-10-03T02:52:29.204Z,2.00
2022-10-03T02:53:50.724Z,1.67
2022-10-03T02:55:09.372Z,1.85
2022-10-03T02:56:33.051Z,2.00
2022-10-03T02:58:11.242Z,1.48
2022-10-03T02:59:43.188Z,1.63
2022-10-03T03:01:00.368Z,2.00
2022-10-03T03:02:35.025Z,2.00
2022-10-03T03:04:20.291Z,1.83
2022-10-03T03:05:46.130Z,2.15
2022-10-03T03:07:31.075Z,2.05
2022-10-03T03:08:39.346Z,2.13
2022-10-03T03:10:07.479Z,1.92
2022-10-03T03:11:48.970Z,2.10
2022-10-03T03:13:15.349Z,1.75
2022-10-03T03:14:39.361Z,1.77
2022-10-03T03:15:57.109Z,1.80
2022-10-03T03:17:31.090Z,2.33
2022-10-03T03:18:38.134Z,1.85
2022-10-03T03:20:03.124Z,1.95
2022-10-03T03:21:24.409Z,1.75
2022-10-03T03:22:45.747Z,1.92
2022-10-03T03:24:12.790Z,1.63
2022-10-03T03:25:52.097Z,1.85
2022-10-03T03:27:15.194Z,1.80
2022-10-03T03:28:45.163Z,2.13
2022-10-03T03:29:51.591Z,1.92
2022-10-03T03:31:49.717Z,2.13
2022-10-03T03:33:16.490Z,2.08
2022-10-03T03:34:33.769Z,2.25
2022-10-03T03:35:54.298Z,1.95
2022-10-03T03:37:07.236Z,2.08
2022-10-03T03:38:30.340Z,2.95
2022-10-03T03:39:57.377Z,2.63
2022-10-03T03:41:24.180Z,2.20
2022-10-03T03:42:47.701Z,2.83
2022-10-03T03:43:59.599Z,2.45
2022-10-03T03:45:14.658Z,2.17
2022-10-03T03:46:41.519Z,2.13
2022-10-03T03:47:50.014Z,3.28
2022-10-03T03:49:01.829Z,2.03
2022-10-03T03:50:12.712Z,2.25
2022-10-03T03:51:23.140Z,2.63
2022-10-03T03:52:51.547Z,2.28
2022-10-03T03:54:12.952Z,2.42
2022-10-03T03:55:33.594Z,2.53
2022-10-03T03:56:54.339Z,2.40
2022-10-03T03:58:21.429Z,2.75
2022-10-03T03:59:36.268Z,2.35
2022-10-03T04:00:53.986Z,2.35
2022-10-03T04:02:19.868Z,2.38
2022-10-03T04:03:44.734Z,2.60
2022-10-03T04:05:08.495Z,2.50
2022-10-03T04:06:15.300Z,2.35
2022-10-03T04:07:40.670Z,2.60
2022-10-03T04:09:11.898Z,2.70
2022-10-03T04:10:38.591Z,2.60
2022-10-03T04:11:49.866Z,2.22
2022-10-03T04:13:19.145Z,2.45
2022-10-03T04:14:50.384Z,2.70
2022-10-03T04:16:49.129Z,2.50
2022-10-03T04:18:31.099Z,2.50
2022-10-03T04:20:04.372Z,2.65
2022-10-03T04:21:28.357Z,2.60
2022-10-03T04:23:05.221Z,2.35
2022-10-03T04:24:36.286Z,2.45
2022-10-03T04:26:05.087Z,2.90
2022-10-03T04:27:16.599Z,2.35
2022-10-03T04:28:45.357Z,2.67
2022-10-03T04:30:16.004Z,2.78
2022-10-03T04:31:42.224Z,2.55
2022-10-03T04:32:57.282Z,2.40
2022-10-03T04:34:15.208Z,2.58
2022-10-03T04:35:36.229Z,2.33
2022-10-03T04:36:57.313Z,2.40
2022-10-03T04:38:21.468Z,2.70
2022-10-03T04:39:43.116Z,2.65
2022-10-03T04:41:05.660Z,2.45
2022-10-03T04:42:27.205Z,2.65
2022-10-03T04:43:45.120Z,2.30
2022-10-03T04:45:03.225Z,2.30
2022-10-03T04:46:21.517Z,2.70
2022-10-03T04:47:29.611Z,1.85
2022-10-03T04:48:56.761Z,2.13
2022-10-03T04:50:19.861Z,2.40
2022-10-03T04:51:33.860Z,2.90
2022-10-03T04:52:49.927Z,2.60
2022-10-03T04:54:17.163Z,2.15
2022-10-03T04:55:42.328Z,2.30
2022-10-03T04:56:56.686Z,2.75
2022-10-03T04:58:15.018Z,2.40
2022-10-03T04:59:31.975Z,2.28
2022-10-03T05:00:48.304Z,2.22
2022-10-03T05:02:22.756Z,2.28
2022-10-03T05:04:04.946Z,1.83
2022-10-03T05:05:38.342Z,1.75
2022-10-03T05:07:02.690Z,1.83
2022-10-03T05:08:17.369Z,2.08
2022-10-03T05:09:41.460Z,1.85
2022-10-03T05:11:06.066Z,1.98
2022-10-03T05:12:16.111Z,1.52
2022-10-03T05:13:32.803Z,1.63
2022-10-03T05:15:03.401Z,2.00
2022-10-03T05:16:14.891Z,1.42
2022-10-03T05:17:40.611Z,1.85
2022-10-03T05:19:15.469Z,1.60
2022-10-03T05:20:48.764Z,1.52
2022-10-03T05:22:23.819Z,1.60
2022-10-03T05:23:52.133Z,1.50
2022-10-03T05:25:17.995Z,1.67
2022-10-03T05:26:45.793Z,1.45
2022-10-03T05:28:17.404Z,1.48
2022-10-03T05:29:35.045Z,1.77
2022-10-03T05:30:44.932Z,1.35
2022-10-03T05:32:18.649Z,1.35
2022-10-03T05:34:02.314Z,1.40
2022-10-03T05:35:29.257Z,1.15
2022-10-03T05:36:59.913Z,1.10
2022-10-03T05:38:26.943Z,1.30
2022-10-03T05:40:12.728Z,1.60
2022-10-03T05:41:19.835Z,1.10
2022-10-03T05:42:51.195Z,1.27
2022-10-03T05:44:01.952Z,1.10
2022-10-03T05:46:52.307Z,1.50
2022-10-03T05:48:14.118Z,1.70
2022-10-03T05:49:31.282Z,1.05
2022-10-03T05:50:57.911Z,1.20
2022-10-03T05:52:15.432Z,1.30
2022-10-03T05:53:50.340Z,1.17
2022-10-03T05:55:18.855Z,0.90
2022-10-03T05:56:43.855Z,1.52
2022-10-03T05:58:17.836Z,1.15
2022-10-03T05:59:37.991Z,1.13
2022-10-03T06:01:04.740Z,1.38
2022-10-03T06:02:55.590Z,1.00
2022-10-03T06:04:06.077Z,1.25
2022-10-03T06:05:40.140Z,1.70
2022-10-03T06:07:00.746Z,1.00
2022-10-03T06:08:41.045Z,1.20
2022-10-03T06:10:08.474Z,1.20
2022-10-03T06:11:21.314Z,1.48
2022-10-03T06:12:30.236Z,1.60
2022-10-03T06:14:14.574Z,1.50
2022-10-03T06:15:32.586Z,1.75
2022-10-03T06:16:53.704Z,1.48
2022-10-03T06:18:26.266Z,1.00
2022-10-03T06:19:35.506Z,1.00
2022-10-03T06:20:38.323Z,1.40
2022-10-03T06:22:25.376Z,1.27
2022-10-03T06:23:56.516Z,1.40
2022-10-03T06:26:52.068Z,1.45
2022-10-03T06:28:11.357Z,0.88
2022-10-03T06:29:28.784Z,0.70
2022-10-03T06:31:19.208Z,0.85
2022-10-03T06:32:58.583Z,0.98
2022-10-03T06:34:14.860Z,0.95
2022-10-03T06:35:54.965Z,1.20
2022-10-03T06:37:38.952Z,1.30
2022-10-03T06:38:53.393Z,1.20
2022-10-03T06:40:11.778Z,1.00
2022-10-03T06:41:34.816Z,1.27
2022-10-03T06:42:37.787Z,0.90
2022-10-03T06:44:23.910Z,1.10
2022-10-03T06:45:38.521Z,1.02
2022-10-03T06:47:04.576Z,0.90
2022-10-03T06:48:28.651Z,1.00
2022-10-03T06:49:52.185Z,0.80
2022-10-03T06:51:16.166Z,0.93
2022-10-03T06:52:38.271Z,0.98
2022-10-03T06:53:44.071Z,1.15
2022-10-03T06:55:23.806Z,1.17
2022-10-03T06:56:50.065Z,1.30
2022-10-03T06:58:11.586Z,1.13
2022-10-03T06:59:22.941Z,1.10
2022-10-03T07:00:45.848Z,0.98
2022-10-03T07:02:03.276Z,1.05
2022-10-03T07:03:14.892Z,1.15
2022-10-03T07:04:47.819Z,0.95
2022-10-03T07:06:08.527Z,0.90
2022-10-03T07:07:43.541Z,1.00
2022-10-03T07:09:10.772Z,1.63
2022-10-03T07:10:30.729Z,0.82
2022-10-03T07:11:52.091Z,0.88
2022-10-03T07:13:06.360Z,0.90
2022-10-03T07:14:42.364Z,0.77
2022-10-03T07:16:20.629Z,0.82
2022-10-03T07:17:15.795Z,1.25
2022-10-03T07:18:52.677Z,0.90
2022-10-03T07:20:17.522Z,1.10
2022-10-03T07:21:40.890Z,0.68
2022-10-03T07:23:04.789Z,0.68
2022-10-03T07:24:31.258Z,0.75
2022-10-03T07:26:15.668Z,1.05
2022-10-03T07:27:32.844Z,0.80
2022-10-03T07:29:05.001Z,0.90
2022-10-03T07:30:14.281Z,1.17
2022-10-03T07:31:35.689Z,0.80
2022-10-03T07:33:03.687Z,0.85
2022-10-03T07:34:18.345Z,0.90
2022-10-03T07:36:01.297Z,1.00
2022-10-03T07:37:25.558Z,0.90
2022-10-03T07:38:58.159Z,0.98
2022-10-03T07:40:15.657Z,1.00
2022-10-03T07:41:55.244Z,0.90
2022-10-03T07:43:35.351Z,1.30
2022-10-03T07:45:04.124Z,1.10
2022-10-03T07:46:29.525Z,1.48
2022-10-03T07:48:00.459Z,0.80
2022-10-03T07:49:40.749Z,0.98
2022-10-03T07:51:23.280Z,0.90
2022-10-03T07:52:54.827Z,1.33
2022-10-03T07:54:30.896Z,1.83
2022-10-03T07:55:52.716Z,1.38
2022-10-03T07:57:15.914Z,1.65
2022-10-03T07:58:44.499Z,1.63
2022-10-03T08:00:07.428Z,1.10
2022-10-03T08:01:39.720Z,1.30
2022-10-03T08:03:15.928Z,1.60
2022-10-03T08:04:36.759Z,1.33
2022-10-03T08:06:18.377Z,1.08
2022-10-03T08:07:32.574Z,1.20
2022-10-03T08:09:11.865Z,1.88
2022-10-03T08:10:40.815Z,1.83
2022-10-03T08:12:14.274Z,1.80
2022-10-03T08:13:55.499Z,1.33
2022-10-03T08:16:22.037Z,1.40
2022-10-03T08:17:55.711Z,1.60
2022-10-03T08:19:21.643Z,1.15
2022-10-03T08:20:40.809Z,1.35
2022-10-03T08:21:46.499Z,2.35
2022-10-03T08:23:04.063Z,1.42
2022-10-03T08:24:27.499Z,1.52
2022-10-03T08:25:45.936Z,1.58
2022-10-03T08:27:10.118Z,1.63
2022-10-03T08:28:28.075Z,1.58
2022-10-03T08:30:00.161Z,1.73
2022-10-03T08:31:30.776Z,1.60
2022-10-03T08:32:49.062Z,1.45
2022-10-03T08:34:27.330Z,1.88
2022-10-03T08:35:38.819Z,1.65
2022-10-03T08:37:08.612Z,1.38
2022-10-03T08:38:54.146Z,1.70
2022-10-03T08:40:14.994Z,1.50
2022-10-03T08:42:43.623Z,1.45
2022-10-03T08:44:25.999Z,1.25
2022-10-03T08:45:59.413Z,1.40
2022-10-03T08:47:42.548Z,1.23
2022-10-03T08:49:03.559Z,1.30
2022-10-03T08:50:28.386Z,1.13
2022-10-03T08:51:42.716Z,1.58
2022-10-03T08:53:13.423Z,2.00
2022-10-03T08:54:40.390Z,1.70
2022-10-03T08:55:52.671Z,1.70
2022-10-03T08:56:55.479Z,2.25
2022-10-03T08:58:06.882Z,1.95
2022-10-03T08:59:35.456Z,1.90
2022-10-03T09:00:56.311Z,1.55
2022-10-03T09:02:17.546Z,1.83
2022-10-03T09:03:57.013Z,2.10
2022-10-03T09:05:33.040Z,1.63
2022-10-03T09:07:15.318Z,1.30
2022-10-03T09:08:37.633Z,1.45
2022-10-03T09:10:04.188Z,1.40
2022-10-03T09:11:28.160Z,1.38
2022-10-03T09:12:49.217Z,1.70
2022-10-03T09:14:13.058Z,1.73
2022-10-03T09:15:53.584Z,1.50
2022-10-03T09:17:10.908Z,1.42
2022-10-03T09:18:31.786Z,1.98
2022-10-03T09:21:23.264Z,2.30
2022-10-03T09:22:54.826Z,1.92
2022-10-03T09:24:29.690Z,1.83
2022-10-03T09:25:35.201Z,1.67
2022-10-03T09:27:15.310Z,2.28
2022-10-03T09:28:41.194Z,2.27
2022-10-03T09:30:01.721Z,1.92
2022-10-03T09:31:30.970Z,1.92
2022-10-03T09:32:55.072Z,1.73
2022-10-03T09:34:13.283Z,1.70
2022-10-03T09:35:39.854Z,1.90
2022-10-03T09:37:13.858Z,1.85
2022-10-03T09:38:36.651Z,1.52
2022-10-03T09:40:00.213Z,1.55
2022-10-03T09:41:38.098Z,1.60
2022-10-03T09:43:11.478Z,1.45
2022-10-03T09:44:52.397Z,1.83
2022-10-03T09:46:09.540Z,1.35
2022-10-03T09:47:44.573Z,1.58
2022-10-03T09:48:58.921Z,1.27
2022-10-03T09:50:23.310Z,1.67
2022-10-03T09:51:56.540Z,1.27
2022-10-03T09:53:07.992Z,1.70
2022-10-03T09:54:22.658Z,1.13
2022-10-03T09:55:34.204Z,1.50
2022-10-03T09:57:04.098Z,1.40
2022-10-03T09:58:28.035Z,1.30
2022-10-03T09:59:34.321Z,1.35
2022-10-03T10:00:52.534Z,1.48
2022-10-03T10:02:00.884Z,1.20
2022-10-03T10:03:26.110Z,1.70
2022-10-03T10:04:56.067Z,1.20
2022-10-03T10:06:02.181Z,1.40
2022-10-03T10:07:29.444Z,1.45
2022-10-03T10:08:48.750Z,1.00
2022-10-03T10:09:57.852Z,1.05
2022-10-03T10:11:35.082Z,1.20
2022-10-03T10:13:08.446Z,1.02
2022-10-03T10:14:16.345Z,1.15
2022-10-03T10:15:18.937Z,0.75
2022-10-03T10:16:51.082Z,1.05
2022-10-03T10:18:17.483Z,0.90
2022-10-03T10:19:35.147Z,0.98
2022-10-03T10:21:02.112Z,1.40
2022-10-03T10:22:47.349Z,1.48
2022-10-03T10:24:17.470Z,0.70
2022-10-03T10:25:43.996Z,1.27
2022-10-03T10:27:04.109Z,0.82
2022-10-03T10:28:15.564Z,1.05
2022-10-03T10:29:38.533Z,1.08
2022-10-03T10:31:02.300Z,0.88
2022-10-03T10:32:16.662Z,1.17
2022-10-03T10:34:00.696Z,0.80
2022-10-03T10:35:41.563Z,0.77
2022-10-03T10:37:17.178Z,1.10
2022-10-03T10:38:40.963Z,0.70
2022-10-03T10:39:58.365Z,1.08
2022-10-03T10:41:22.283Z,0.70
2022-10-03T10:42:55.370Z,1.00
2022-10-03T10:44:19.627Z,0.93
2022-10-03T10:45:39.049Z,0.70
2022-10-03T10:47:09.081Z,0.80
2022-10-03T10:48:30.295Z,0.50
2022-10-03T10:50:03.411Z,0.50
2022-10-03T10:51:20.925Z,0.60
2022-10-03T10:53:09.400Z,0.73
2022-10-03T10:54:36.439Z,0.45
2022-10-03T10:55:59.902Z,0.60
2022-10-03T10:57:17.563Z,0.47
2022-10-03T10:58:45.430Z,0.40
2022-10-03T11:00:15.545Z,0.60
2022-10-03T11:01:45.981Z,0.52
2022-10-03T11:03:36.606Z,0.50
2022-10-03T11:05:13.732Z,0.40
2022-10-03T11:06:35.052Z,0.60
2022-10-03T11:08:04.397Z,0.40
2022-10-03T11:09:18.965Z,0.60
2022-10-03T11:10:33.331Z,0.73
2022-10-03T11:11:57.566Z,0.60
2022-10-03T11:13:21.516Z,0.80
2022-10-03T11:14:59.708Z,0.45
2022-10-03T11:16:40.905Z,0.55
2022-10-03T11:18:04.882Z,0.60
2022-10-03T11:19:16.615Z,0.50
2022-10-03T11:20:34.158Z,0.47
2022-10-03T11:22:01.359Z,0.90
2022-10-03T11:23:30.557Z,0.55
2022-10-03T11:25:26.540Z,0.63
2022-10-03T11:26:47.237Z,0.68
2022-10-03T11:28:27.314Z,0.80
2022-10-03T11:30:18.678Z,0.73
2022-10-03T11:31:39.224Z,0.52
2022-10-03T11:32:53.888Z,0.57
2022-10-03T11:34:33.515Z,0.50
2022-10-03T11:35:51.151Z,0.63
2022-10-03T11:37:31.116Z,0.65
2022-10-03T11:39:02.890Z,0.73
2022-10-03T11:40:11.024Z,0.70
2022-10-03T11:41:46.323Z,0.45
2022-10-03T11:43:13.393Z,0.70
2022-10-03T11:44:31.685Z,1.02
2022-10-03T11:45:46.403Z,0.63
2022-10-03T11:47:09.294Z,0.57
2022-10-03T11:48:36.675Z,0.73
2022-10-03T11:50:06.889Z,0.80
2022-10-03T11:51:12.663Z,0.83
2022-10-03T11:52:28.841Z,1.05
2022-10-03T11:54:26.318Z,0.43
2022-10-03T11:55:53.688Z,0.80
2022-10-03T11:58:48.412Z,0.63
2022-10-03T12:00:00.534Z,0.60
2022-10-03T12:01:24.581Z,0.70
2022-10-03T12:02:52.122Z,0.75
2022-10-03T12:04:15.264Z,1.05
2022-10-03T12:05:42.448Z,0.93
2022-10-03T12:07:18.791Z,0.90
2022-10-03T12:08:53.490Z,0.82
2022-10-03T12:10:30.228Z,1.05
2022-10-03T12:11:53.797Z,0.80
2022-10-03T12:12:56.703Z,0.85
2022-10-03T12:14:17.965Z,0.80
2022-10-03T12:15:35.203Z,0.60
2022-10-03T12:17:05.838Z,0.80
2022-10-03T12:18:18.285Z,0.52
2022-10-03T12:19:42.638Z,0.85
2022-10-03T12:21:02.945Z,0.73
2022-10-03T12:22:11.312Z,1.00
2022-10-03T12:23:29.757Z,0.60
2022-10-03T12:24:36.989Z,1.00
2022-10-03T12:25:41.417Z,1.23
2022-10-03T12:26:58.897Z,0.80
2022-10-03T12:28:39.918Z,0.75
2022-10-03T12:29:46.088Z,0.75
2022-10-03T12:31:01.391Z,1.15
2022-10-03T12:32:35.584Z,0.80
2022-10-03T12:34:10.165Z,0.80
2022-10-03T12:35:41.002Z,0.68
2022-10-03T12:37:16.633Z,1.10
2022-10-03T12:38:33.889Z,0.65
2022-10-03T12:39:52.565Z,0.63
2022-10-03T12:41:24.468Z,0.85
2022-10-03T12:43:03.289Z,0.60
2022-10-03T12:44:31.928Z,0.70
2022-10-03T12:45:43.367Z,0.50
2022-10-03T12:47:02.334Z,0.50
2022-10-03T12:48:16.497Z,0.88
2022-10-03T12:49:41.006Z,0.60
2022-10-03T12:51:02.073Z,0.98
2022-10-03T12:52:37.868Z,1.00
2022-10-03T12:53:57.773Z,1.23
2022-10-03T12:55:10.300Z,0.75
2022-10-03T12:56:18.439Z,0.63
2022-10-03T12:57:44.827Z,1.00
2022-10-03T12:59:07.899Z,1.20
2022-10-03T13:00:24.080Z,0.70
2022-10-03T13:01:45.438Z,0.70
2022-10-03T13:03:10.051Z,0.80
2022-10-03T13:04:31.076Z,0.95
2022-10-03T13:05:37.776Z,0.63
2022-10-03T13:07:03.296Z,0.90
2022-10-03T13:08:12.056Z,0.85
2022-10-03T13:09:20.613Z,1.42
2022-10-03T13:10:32.217Z,0.82
2022-10-03T13:11:59.566Z,0.93
2022-10-03T13:13:44.794Z,0.85
2022-10-03T13:15:34.284Z,0.70
2022-10-03T13:17:03.334Z,0.60
2022-10-03T13:18:33.455Z,0.90
2022-10-03T13:19:44.590Z,0.63
2022-10-03T13:20:59.415Z,0.82
2022-10-03T13:22:11.792Z,0.60
2022-10-03T13:23:47.643Z,0.90
2022-10-03T13:25:13.927Z,0.70
2022-10-03T13:26:26.149Z,0.65
2022-10-03T13:27:51.856Z,0.90
2022-10-03T13:29:20.533Z,0.70
2022-10-03T13:30:31.405Z,1.00
2022-10-03T13:31:34.663Z,0.52
2022-10-03T13:32:44.447Z,0.55
2022-10-03T13:34:10.845Z,0.65
2022-10-03T13:35:52.051Z,0.60
2022-10-03T13:37:10.063Z,0.57
2022-10-03T13:38:42.564Z,0.70
2022-10-03T13:39:53.230Z,0.70
2022-10-03T13:42:36.522Z,0.65
2022-10-03T13:43:41.439Z,0.60
2022-10-03T13:44:55.534Z,0.80
2022-10-03T13:45:59.128Z,0.80
2022-10-03T13:47:17.036Z,0.82
2022-10-03T13:48:21.404Z,0.70
2022-10-03T13:49:32.383Z,0.95
2022-10-03T13:50:59.377Z,0.82
2022-10-03T13:52:24.301Z,0.70
2022-10-03T13:53:36.631Z,0.63
2022-10-03T13:54:58.025Z,0.70
2022-10-03T13:56:35.176Z,0.70
2022-10-03T13:57:45.069Z,1.10
2022-10-03T13:58:50.740Z,0.65
2022-10-03T14:00:16.620Z,0.60
2022-10-03T14:02:00.587Z,0.70
2022-10-03T14:03:41.577Z,0.70
2022-10-03T14:05:02.489Z,0.57
2022-10-03T14:06:42.389Z,0.70
2022-10-03T14:07:59.079Z,1.13
2022-10-03T14:09:29.449Z,1.00
2022-10-03T14:10:53.552Z,0.80
2022-10-03T14:12:24.786Z,0.88
2022-10-03T14:14:12.217Z,0.57
2022-10-03T14:15:39.515Z,0.80
2022-10-03T14:16:50.179Z,0.63
2022-10-03T14:18:07.489Z,0.75
2022-10-03T14:19:49.331Z,0.75
2022-10-03T14:21:27.298Z,0.60
2022-10-03T14:22:49.143Z,1.00
2022-10-03T14:24:10.093Z,0.93
2022-10-03T14:25:21.478Z,1.02
2022-10-03T14:26:53.452Z,1.00
2022-10-03T14:28:00.582Z,0.77
2022-10-03T14:29:20.398Z,0.70
2022-10-03T14:31:05.044Z,0.70
2022-10-03T14:32:53.811Z,0.75
2022-10-03T14:34:01.782Z,0.80
2022-10-03T14:35:38.799Z,0.70
2022-10-03T14:36:47.869Z,0.88
2022-10-03T14:38:54.730Z,0.57
2022-10-03T14:40:17.875Z,0.68
2022-10-03T14:41:26.030Z,0.63
2022-10-03T14:42:34.080Z,0.70
2022-10-03T14:43:46.525Z,0.60
2022-10-03T14:44:54.756Z,0.60
2022-10-03T14:45:59.437Z,0.75
2022-10-03T14:47:07.848Z,0.80
2022-10-03T14:48:18.068Z,0.70
2022-10-03T14:49:52.375Z,0.75
2022-10-03T14:50:52.381Z,0.68
2022-10-03T14:52:22.036Z,0.80
2022-10-03T14:53:29.955Z,1.00
2022-10-03T14:54:37.719Z,1.00
2022-10-03T14:55:46.059Z,1.02
2022-10-03T14:56:51.559Z,0.75
2022-10-03T14:58:11.091Z,0.82
2022-10-03T14:59:20.411Z,0.83
2022-10-03T15:00:43.768Z,0.82
2022-10-03T15:01:52.927Z,0.80
2022-10-03T15:02:55.978Z,1.25
2022-10-03T15:04:24.629Z,1.00
2022-10-03T15:05:35.251Z,1.40
2022-10-03T15:07:45.223Z,1.17
2022-10-03T15:08:54.016Z,1.25
2022-10-03T15:09:58.666Z,1.17
2022-10-03T15:11:01.750Z,0.88
2022-10-03T15:12:07.421Z,1.70
2022-10-03T15:13:10.833Z,1.25
2022-10-03T15:14:13.716Z,1.00
2022-10-03T15:15:19.701Z,1.58
2022-10-03T15:16:23.266Z,1.25
2022-10-03T15:17:31.030Z,1.10
2022-10-03T15:18:33.855Z,1.35
2022-10-03T15:19:38.590Z,1.23
2022-10-03T15:20:42.997Z,1.05
2022-10-03T15:21:47.550Z,1.20
2022-10-03T15:22:56.136Z,1.23
2022-10-03T15:24:05.077Z,1.30
2022-10-03T15:25:14.532Z,1.58
2022-10-03T15:26:21.252Z,1.48
2022-10-03T15:27:24.346Z,1.20
2022-10-03T15:28:45.177Z,1.13
2022-10-03T15:29:52.611Z,0.95
2022-10-03T15:30:56.837Z,0.98
2022-10-03T15:32:00.045Z,0.95
2022-10-03T15:33:07.533Z,1.27
2022-10-03T15:34:21.720Z,0.77
2022-10-03T15:35:28.894Z,0.90
2022-10-03T15:36:37.601Z,1.00
2022-10-03T15:37:45.418Z,1.30
2022-10-03T15:38:54.404Z,0.93
2022-10-03T15:40:00.967Z,1.30
2022-10-03T15:41:17.526Z,1.50
2022-10-03T15:42:23.321Z,1.50
2022-10-03T15:43:31.505Z,1.35
2022-10-03T15:44:39.587Z,1.33
2022-10-03T15:45:43.054Z,1.00
2022-10-03T15:46:49.439Z,1.00
2022-10-03T15:47:52.501Z,0.90
2022-10-03T15:48:55.320Z,1.30
2022-10-03T15:50:00.574Z,1.17
2022-10-03T15:51:04.129Z,0.80
2022-10-03T15:52:15.786Z,0.80
2022-10-03T15:53:36.166Z,1.38
2022-10-03T15:54:40.906Z,0.80
2022-10-03T15:55:56.734Z,1.00
2022-10-03T15:57:00.447Z,1.00
2022-10-03T15:58:15.334Z,0.88
2022-10-03T15:59:27.519Z,0.85
2022-10-03T16:00:32.134Z,0.88
2022-10-03T16:01:42.701Z,1.10
2022-10-03T16:02:52.917Z,0.80
2022-10-03T16:04:02.658Z,0.80
2022-10-03T16:05:09.196Z,0.85
2022-10-03T16:06:17.523Z,0.82
2022-10-03T16:07:31.334Z,0.90
2022-10-03T16:08:36.695Z,1.02
2022-10-03T16:09:58.818Z,1.13
2022-10-03T16:11:06.390Z,1.00
2022-10-03T16:12:20.430Z,1.15
2022-10-03T16:13:34.166Z,1.30
2022-10-03T16:14:47.384Z,1.30
2022-10-03T16:16:19.003Z,1.38
2022-10-03T16:17:23.522Z,1.40
2022-10-03T16:18:45.636Z,1.33
2022-10-03T16:19:57.272Z,1.02
2022-10-03T16:21:02.081Z,1.30
2022-10-03T16:22:19.755Z,1.13
2022-10-03T16:23:28.883Z,1.10
2022-10-03T16:24:35.774Z,1.30
2022-10-03T16:25:50.169Z,1.50
2022-10-03T16:26:56.645Z,1.08
2022-10-03T16:28:03.271Z,1.50
2022-10-03T16:29:25.208Z,1.45
2022-10-03T16:30:31.491Z,1.63
2022-10-03T16:31:50.618Z,1.35
2022-10-03T16:32:57.237Z,1.65
2022-10-03T16:34:12.636Z,1.40
2022-10-03T16:35:45.390Z,1.10
2022-10-03T16:36:50.171Z,1.27
2022-10-03T16:37:54.108Z,1.65
2022-10-03T16:39:01.351Z,1.23
2022-10-03T16:40:07.584Z,1.60
2022-10-03T16:41:30.229Z,1.50
2022-10-03T16:42:42.564Z,1.27
2022-10-03T16:43:56.211Z,1.20
2022-10-03T16:45:01.651Z,1.35
2022-10-03T16:46:16.627Z,1.20
2022-10-03T16:47:29.982Z,1.55
2022-10-03T16:48:52.843Z,0.93
2022-10-03T16:50:18.564Z,1.30
2022-10-03T16:51:27.272Z,1.30
2022-10-03T16:52:36.151Z,1.40
2022-10-03T16:53:42.710Z,1.33
2022-10-03T16:54:47.260Z,1.60
2022-10-03T16:56:00.043Z,1.35
2022-10-03T16:57:06.160Z,2.42
2022-10-03T16:58:08.546Z,2.92
2022-10-03T16:59:21.969Z,2.78
2022-10-03T17:00:33.720Z,2.72
2022-10-03T17:01:41.277Z,2.25
2022-10-03T17:02:44.605Z,2.13
2022-10-03T17:03:51.511Z,2.22
2022-10-03T17:05:01.128Z,2.03
2022-10-03T17:06:07.333Z,2.30
2022-10-03T17:07:23.826Z,2.33
2022-10-03T17:08:41.827Z,2.72
2022-10-03T17:09:51.624Z,3.58
2022-10-03T17:10:56.537Z,4.45
2022-10-03T17:12:00.867Z,3.78
2022-10-03T17:13:14.116Z,4.90
2022-10-03T17:14:19.299Z,5.65
2022-10-03T17:15:29.097Z,5.65
2022-10-03T17:17:04.862Z,4.03
2022-10-03T17:18:11.452Z,7.63
2022-10-03T17:19:16.756Z,10.63
2022-10-03T17:20:40.080Z,15.75
2022-10-03T17:21:54.045Z,9.95
2022-10-03T17:23:01.108Z,6.45
2022-10-03T17:24:13.598Z,5.60
2022-10-03T17:25:19.306Z,4.53
2022-10-03T17:26:33.304Z,3.45
2022-10-03T17:27:40.153Z,3.33
2022-10-03T17:29:09.915Z,3.00
2022-10-03T17:30:31.570Z,3.30
2022-10-03T17:31:35.207Z,3.05
2022-10-03T17:32:42.846Z,3.05
2022-10-03T17:33:52.788Z,3.20
2022-10-03T17:35:11.082Z,2.00
2022-10-03T17:36:16.759Z,3.97
2022-10-03T17:37:19.368Z,3.05
2022-10-03T17:38:49.835Z,2.50
2022-10-03T17:40:20.175Z,3.40
2022-10-03T17:41:28.014Z,3.42
2022-10-03T17:42:41.364Z,3.38
2022-10-03T17:43:52.876Z,4.18
2022-10-03T17:45:19.726Z,3.72
2022-10-03T17:46:31.310Z,2.60
2022-10-03T17:48:07.689Z,3.22
2022-10-03T17:49:12.898Z,3.13
2022-10-03T17:50:40.122Z,2.92
2022-10-03T17:51:44.773Z,2.30
2022-10-03T17:52:48.097Z,3.20
2022-10-03T17:53:57.363Z,2.35
2022-10-03T17:55:03.087Z,2.22
2022-10-03T17:56:11.725Z,2.30
2022-10-03T17:57:23.341Z,2.40
2022-10-03T17:58:29.834Z,2.38
2022-10-03T17:59:42.340Z,2.13
2022-10-03T18:00:45.104Z,2.60
2022-10-03T18:01:52.789Z,2.35
2022-10-03T18:03:05.492Z,2.30
2022-10-03T18:04:18.485Z,2.47
2022-10-03T18:05:26.177Z,3.63
2022-10-03T18:06:35.665Z,4.40
2022-10-03T18:07:38.507Z,3.35
2022-10-03T18:08:42.016Z,3.67
2022-10-03T18:09:47.908Z,3.90
2022-10-03T18:10:52.471Z,4.57